createdAt,value
2018-10-03T00:00:31.970Z,75.37
2018-10-03T00:03:01.077Z,76.33
2018-10-03T00:05:30.042Z,77.01
2018-10-03T00:07:59.083Z,77.57
2018-10-03T00:10:28.331Z,77.85
2018-10-03T00:12:57.607Z,78.41
2018-10-03T00:15:26.871Z,78.28
2018-10-03T00:17:55.945Z,79.36
2018-10-03T00:20:25.585Z,83.02
2018-10-03T00:22:54.739Z,84.81
2018-10-03T00:25:23.742Z,84.06
2018-10-03T00:27:52.876Z,84.54
2018-10-03T00:30:21.876Z,87.66
2018-10-03T00:32:50.817Z,85.56
2018-10-03T00:35:19.782Z,83.13
2018-10-03T00:37:48.839Z,81.33
2018-10-03T00:40:17.824Z,84.55
2018-10-03T00:42:46.889Z,84.34
2018-10-03T00:45:15.961Z,86.44
2018-10-03T00:47:45.068Z,85.42
2018-10-03T00:50:14.546Z,85.35
2018-10-03T00:52:43.486Z,86.30
2018-10-03T00:55:12.552Z,85.47
2018-10-03T00:57:41.850Z,82.44
2018-10-03T01:00:10.861Z,81.09
2018-10-03T01:02:39.994Z,80.35
2018-10-03T01:05:09.090Z,79.32
2018-10-03T01:07:38.878Z,79.21
2018-10-03T01:10:07.857Z,78.16
2018-10-03T01:12:36.869Z,77.36
2018-10-03T01:15:06.306Z,77.79
2018-10-03T01:17:35.227Z,77.32
2018-10-03T01:20:04.326Z,77.14
2018-10-03T01:22:33.300Z,77.61
2018-10-03T01:25:02.423Z,77.38
2018-10-03T01:27:31.638Z,77.08
2018-10-03T01:30:01.814Z,78.31
2018-10-03T01:32:31.253Z,76.91
2018-10-03T01:35:00.631Z,77.76
2018-10-03T01:37:29.947Z,77.51
2018-10-03T01:39:59.227Z,77.63
2018-10-03T01:42:28.522Z,77.65
2018-10-03T01:44:57.961Z,80.08
2018-10-03T01:47:27.150Z,81.26
2018-10-03T01:49:56.191Z,81.96
2018-10-03T01:52:25.250Z,77.76
2018-10-03T01:54:54.376Z,81.42
2018-10-03T01:57:23.456Z,85.61
2018-10-03T01:59:52.451Z,86.81
2018-10-03T02:02:21.458Z,88.73
2018-10-03T02:04:50.400Z,88.27
2018-10-03T02:07:19.452Z,91.52
2018-10-03T02:09:48.506Z,89.93
2018-10-03T02:12:17.532Z,92.73
2018-10-03T02:14:46.572Z,88.66
2018-10-03T02:17:15.742Z,86.43
2018-10-03T02:19:44.766Z,82.83
2018-10-03T02:22:13.733Z,84.64
2018-10-03T02:24:42.769Z,84.52
2018-10-03T02:27:11.705Z,87.86
2018-10-03T02:29:40.815Z,86.65
2018-10-03T02:32:09.913Z,84.52
2018-10-03T02:34:38.869Z,89.43
2018-10-03T02:37:08.313Z,85.54
2018-10-03T02:39:37.700Z,88.39
2018-10-03T02:42:07.036Z,90.55
2018-10-03T02:44:36.189Z,92.78
2018-10-03T02:47:05.507Z,94.94
2018-10-03T02:49:34.474Z,95.94
2018-10-03T02:52:03.489Z,96.47
2018-10-03T02:54:32.668Z,96.97
2018-10-03T02:57:01.714Z,97.54
2018-10-03T02:59:30.785Z,97.93
2018-10-03T03:01:59.841Z,99.59
2018-10-03T03:04:28.912Z,99.74
2018-10-03T03:06:57.926Z,98.67
2018-10-03T03:09:26.971Z,99.78
2018-10-03T03:11:56.056Z,100.00
2018-10-03T03:14:25.127Z,100.00
2018-10-03T03:16:54.154Z,98.70
2018-10-03T03:19:23.166Z,99.12
2018-10-03T03:21:52.153Z,99.59
2018-10-03T03:24:21.171Z,100.00
2018-10-03T03:26:50.136Z,100.00
2018-10-03T03:29:19.152Z,100.00
2018-10-03T03:31:48.196Z,100.00
2018-10-03T03:34:17.225Z,100.00
2018-10-03T03:36:46.254Z,100.00
2018-10-03T03:39:15.409Z,98.97
2018-10-03T03:41:45.466Z,98.80
2018-10-03T03:44:14.622Z,99.18
2018-10-03T03:46:43.649Z,100.00
2018-10-03T03:49:12.672Z,99.51
2018-10-03T03:51:41.692Z,100.00
2018-10-03T03:54:10.704Z,100.00
2018-10-03T03:56:39.743Z,100.00
2018-10-03T03:59:08.708Z,100.00
2018-10-03T04:01:37.756Z,100.00
2018-10-03T04:04:06.867Z,100.00
2018-10-03T04:06:35.881Z,100.00
2018-10-03T04:09:05.999Z,100.00
2018-10-03T04:11:35.041Z,100.00
2018-10-03T04:14:04.173Z,100.00
2018-10-03T04:16:33.295Z,100.00
2018-10-03T04:19:03.206Z,100.00
2018-10-03T04:21:39.541Z,100.00
2018-10-03T04:24:09.790Z,100.00
2018-10-03T04:26:39.829Z,100.00
2018-10-03T04:29:09.001Z,100.00
2018-10-03T04:31:38.348Z,100.00
2018-10-03T04:34:07.466Z,100.00
2018-10-03T04:36:36.717Z,100.00
2018-10-03T04:39:07.699Z,100.00
2018-10-03T04:41:37.431Z,100.00
2018-10-03T04:44:06.429Z,100.00
2018-10-03T04:46:35.508Z,93.05
2018-10-03T04:49:04.603Z,90.66
2018-10-03T04:51:33.659Z,89.05
2018-10-03T04:54:02.687Z,86.32
2018-10-03T04:56:31.757Z,89.69
2018-10-03T04:59:00.989Z,87.65
2018-10-03T05:01:30.037Z,92.39
2018-10-03T05:03:59.172Z,93.61
2018-10-03T05:06:28.162Z,93.58
2018-10-03T05:08:57.312Z,89.58
2018-10-03T05:11:26.499Z,89.72
2018-10-03T05:13:55.511Z,88.98
2018-10-03T05:16:24.678Z,89.96
2018-10-03T05:18:53.630Z,94.35
2018-10-03T05:21:22.603Z,98.54
2018-10-03T05:23:51.628Z,100.00
2018-10-03T05:26:20.606Z,100.00
2018-10-03T05:28:49.646Z,100.00
2018-10-03T05:31:18.634Z,95.10
2018-10-03T05:33:47.778Z,95.14
2018-10-03T05:36:17.146Z,95.40
2018-10-03T05:38:46.493Z,98.93
2018-10-03T05:41:15.519Z,99.64
2018-10-03T05:43:44.570Z,100.00
2018-10-03T05:46:13.605Z,100.00
2018-10-03T05:48:42.803Z,100.00
2018-10-03T05:51:11.808Z,100.00
2018-10-03T05:53:40.924Z,99.93
2018-10-03T05:56:10.094Z,100.00
2018-10-03T05:58:39.503Z,95.90
2018-10-03T06:01:09.037Z,99.98
2018-10-03T06:03:38.133Z,98.03
2018-10-03T06:06:07.793Z,91.54
2018-10-03T06:08:37.155Z,92.14
2018-10-03T06:11:06.987Z,86.59
2018-10-03T06:13:35.960Z,91.12
2018-10-03T06:16:05.599Z,88.56
2018-10-03T06:18:35.015Z,88.98
2018-10-03T06:21:04.357Z,85.97
2018-10-03T06:23:33.666Z,86.63
2018-10-03T06:26:03.117Z,84.59
2018-10-03T06:28:32.413Z,86.62
2018-10-03T06:31:01.587Z,86.87
2018-10-03T06:33:30.669Z,83.67
2018-10-03T06:36:01.203Z,82.03
2018-10-03T06:38:30.522Z,83.79
2018-10-03T06:40:59.847Z,86.13
2018-10-03T06:43:29.267Z,82.19
2018-10-03T06:45:58.519Z,80.91
2018-10-03T06:48:27.624Z,81.96
2018-10-03T06:50:56.789Z,80.75
2018-10-03T06:53:26.347Z,80.74
2018-10-03T06:55:56.922Z,84.09
2018-10-03T06:58:25.920Z,85.31
2018-10-03T07:00:54.926Z,83.97
2018-10-03T07:03:24.067Z,89.81
2018-10-03T07:05:53.194Z,86.28
2018-10-03T07:08:22.253Z,83.42
2018-10-03T07:10:51.744Z,91.26
2018-10-03T07:13:20.849Z,88.43
2018-10-03T07:15:50.287Z,90.51
2018-10-03T07:18:19.346Z,94.44
2018-10-03T07:20:48.495Z,84.25
2018-10-03T07:23:17.571Z,80.76
2018-10-03T07:25:46.628Z,85.16
2018-10-03T07:28:16.303Z,90.16
2018-10-03T07:30:45.395Z,84.99
2018-10-03T07:33:14.451Z,76.27
2018-10-03T07:35:43.646Z,76.15
2018-10-03T07:38:12.968Z,75.55
2018-10-03T07:40:42.003Z,80.15
2018-10-03T07:43:10.991Z,85.71
2018-10-03T07:45:40.085Z,83.28
2018-10-03T07:48:09.223Z,79.32
2018-10-03T07:50:38.143Z,77.25
2018-10-03T07:53:07.444Z,74.65
2018-10-03T07:55:36.469Z,74.39
2018-10-03T07:58:05.745Z,73.72
2018-10-03T08:00:34.821Z,77.77
2018-10-03T08:03:04.162Z,74.73
2018-10-03T08:05:33.243Z,74.08
2018-10-03T08:08:02.230Z,73.55
2018-10-03T08:10:31.298Z,72.66
2018-10-03T08:13:00.337Z,72.86
2018-10-03T08:15:29.786Z,76.31
2018-10-03T08:17:58.780Z,74.33
2018-10-03T08:20:28.012Z,72.54
2018-10-03T08:22:57.188Z,72.41
2018-10-03T08:25:26.197Z,72.54
2018-10-03T08:27:55.706Z,71.80
2018-10-03T08:30:24.668Z,73.55
2018-10-03T08:32:53.984Z,78.56
2018-10-03T08:35:23.127Z,78.02
2018-10-03T08:37:52.528Z,78.56
2018-10-03T08:40:21.523Z,83.26
2018-10-03T08:42:50.577Z,83.15
2018-10-03T08:45:19.681Z,84.70
2018-10-03T08:47:48.690Z,86.23
2018-10-03T08:50:17.750Z,81.41
2018-10-03T08:52:46.752Z,83.50
2018-10-03T08:55:15.829Z,84.72
2018-10-03T08:57:44.918Z,79.83
2018-10-03T09:00:14.187Z,79.95
2018-10-03T09:02:43.346Z,84.04
2018-10-03T09:05:13.211Z,89.50
2018-10-03T09:07:42.441Z,92.82
2018-10-03T09:10:11.552Z,90.38
2018-10-03T09:12:40.751Z,78.52
2018-10-03T09:15:10.091Z,86.08
2018-10-03T09:17:39.218Z,86.44
2018-10-03T09:20:08.524Z,86.22
2018-10-03T09:22:37.617Z,81.95
2018-10-03T09:25:06.601Z,84.01
2018-10-03T09:27:35.675Z,80.68
2018-10-03T09:30:05.563Z,80.19
2018-10-03T09:32:34.670Z,78.13
2018-10-03T09:35:04.448Z,76.93
2018-10-03T09:37:33.500Z,78.81
2018-10-03T09:40:02.580Z,80.85
2018-10-03T09:42:32.024Z,79.48
2018-10-03T09:45:01.131Z,78.73
2018-10-03T09:47:30.181Z,77.30
2018-10-03T09:49:59.292Z,77.97
2018-10-03T09:52:29.243Z,79.53
2018-10-03T09:54:58.431Z,78.77
2018-10-03T09:57:27.405Z,77.91
2018-10-03T09:59:56.465Z,75.00
2018-10-03T10:02:25.754Z,76.70
2018-10-03T10:04:54.829Z,75.19
2018-10-03T10:07:23.891Z,78.03
2018-10-03T10:09:52.997Z,77.63
2018-10-03T10:12:21.997Z,78.09
2018-10-03T10:14:51.119Z,74.95
2018-10-03T10:17:20.126Z,78.84
2018-10-03T10:19:49.195Z,77.64
2018-10-03T10:22:18.263Z,77.37
2018-10-03T10:24:47.290Z,75.85
2018-10-03T10:27:16.424Z,76.89
2018-10-03T10:29:45.638Z,78.65
2018-10-03T10:32:14.740Z,74.58
2018-10-03T10:34:43.756Z,75.27
2018-10-03T10:37:12.777Z,76.14
2018-10-03T10:39:41.835Z,74.56
2018-10-03T10:42:10.928Z,73.04
2018-10-03T10:44:40.027Z,74.06
2018-10-03T10:47:09.058Z,74.73
2018-10-03T10:49:38.055Z,72.39
2018-10-03T10:52:07.197Z,71.49
2018-10-03T10:54:36.162Z,72.21
2018-10-03T10:57:05.327Z,72.28
2018-10-03T10:59:34.339Z,72.84
2018-10-03T11:02:03.341Z,72.21
2018-10-03T11:04:32.525Z,71.96
2018-10-03T11:07:01.564Z,76.72
2018-10-03T11:09:30.900Z,73.85
2018-10-03T11:12:00.150Z,75.49
2018-10-03T11:14:29.154Z,75.10
2018-10-03T11:16:58.204Z,75.23
2018-10-03T11:19:27.195Z,78.83
2018-10-03T11:21:56.214Z,74.01
2018-10-03T11:24:25.474Z,77.21
2018-10-03T11:26:54.614Z,77.71
2018-10-03T11:29:24.868Z,75.61
2018-10-03T11:31:54.058Z,78.23
2018-10-03T11:34:23.156Z,74.80
2018-10-03T11:36:52.440Z,74.10
2018-10-03T11:39:21.505Z,74.33
2018-10-03T11:41:50.651Z,71.41
2018-10-03T11:44:20.281Z,69.21
2018-10-03T11:46:49.486Z,71.11
2018-10-03T11:49:19.399Z,70.35
2018-10-03T11:51:48.667Z,70.60
2018-10-03T11:54:18.209Z,70.13
2018-10-03T11:56:47.319Z,68.61
2018-10-03T11:59:16.501Z,69.94
2018-10-03T12:01:45.808Z,70.93
2018-10-03T12:04:14.945Z,67.05
2018-10-03T12:06:43.961Z,66.40
2018-10-03T12:09:14.015Z,66.17
2018-10-03T12:11:44.074Z,66.65
2018-10-03T12:14:13.373Z,67.01
2018-10-03T12:16:44.053Z,66.72
2018-10-03T12:19:13.221Z,68.32
2018-10-03T12:21:43.537Z,67.15
2018-10-03T12:24:12.565Z,68.54
2018-10-03T12:26:41.791Z,66.91
2018-10-03T12:29:11.642Z,67.60
2018-10-03T12:31:40.793Z,66.69
2018-10-03T12:34:10.041Z,68.75
2018-10-03T12:36:40.435Z,66.65
2018-10-03T12:39:13.227Z,67.25
2018-10-03T12:41:44.009Z,70.50
2018-10-03T12:44:13.248Z,65.58
2018-10-03T12:46:42.412Z,66.24
2018-10-03T12:49:11.624Z,66.68
2018-10-03T12:51:40.816Z,68.13
2018-10-03T12:54:09.858Z,70.84
2018-10-03T12:56:39.179Z,70.46
2018-10-03T12:59:08.385Z,71.53
2018-10-03T13:01:37.559Z,74.24
2018-10-03T13:04:06.847Z,73.83
2018-10-03T13:06:36.485Z,75.37
2018-10-03T13:09:09.524Z,75.37
2018-10-03T13:11:38.751Z,76.64
2018-10-03T13:14:08.187Z,77.46
2018-10-03T13:16:37.495Z,79.79
2018-10-03T13:19:06.588Z,81.90
2018-10-03T13:21:37.596Z,82.52
2018-10-03T13:24:08.138Z,83.84
2018-10-03T13:26:37.915Z,83.87
2018-10-03T13:29:07.275Z,84.62
2018-10-03T13:31:36.575Z,82.41
2018-10-03T13:34:05.812Z,85.30
2018-10-03T13:36:35.162Z,83.02
2018-10-03T13:39:05.333Z,86.23
2018-10-03T13:41:34.666Z,82.98
2018-10-03T13:44:03.817Z,84.60
2018-10-03T13:46:33.671Z,84.09
2018-10-03T13:49:02.719Z,83.48
2018-10-03T13:51:31.876Z,83.00
2018-10-03T13:54:01.334Z,84.11
2018-10-03T13:56:30.480Z,83.82
2018-10-03T13:58:59.831Z,84.80
2018-10-03T14:01:31.198Z,83.34
2018-10-03T14:04:00.592Z,83.22
2018-10-03T14:06:29.778Z,83.47
2018-10-03T14:08:59.276Z,83.99
2018-10-03T14:11:28.483Z,82.56
2018-10-03T14:13:57.677Z,84.28
2018-10-03T14:16:26.836Z,85.85
2018-10-03T14:18:55.978Z,86.89
2018-10-03T14:21:25.138Z,86.98
2018-10-03T14:23:58.547Z,88.60
2018-10-03T14:26:28.923Z,90.78
2018-10-03T14:28:59.467Z,88.78
2018-10-03T14:31:33.390Z,89.45
2018-10-03T14:34:02.550Z,88.77
2018-10-03T14:36:31.669Z,90.30
2018-10-03T14:39:00.761Z,86.20
2018-10-03T14:41:30.148Z,85.90
2018-10-03T14:43:59.570Z,88.28
2018-10-03T14:46:28.947Z,91.93
2018-10-03T14:48:59.293Z,89.55
2018-10-03T14:51:29.299Z,90.88
2018-10-03T14:53:58.334Z,88.58
2018-10-03T14:56:27.809Z,90.09
2018-10-03T14:58:57.648Z,88.84
2018-10-03T15:01:27.211Z,93.24
2018-10-03T15:03:56.661Z,92.53
2018-10-03T15:06:26.938Z,88.88
2018-10-03T15:08:56.341Z,92.10
2018-10-03T15:11:25.769Z,92.28
2018-10-03T15:13:55.463Z,95.43
2018-10-03T15:16:25.162Z,91.48
2018-10-03T15:18:54.282Z,91.45
2018-10-03T15:21:23.337Z,90.49
2018-10-03T15:23:52.535Z,92.58
2018-10-03T15:26:21.633Z,93.90
2018-10-03T15:28:50.763Z,92.39
2018-10-03T15:31:21.255Z,91.28
2018-10-03T15:33:50.812Z,95.15
2018-10-03T15:36:26.317Z,98.52
2018-10-03T15:38:56.117Z,95.27
2018-10-03T15:41:25.832Z,97.13
2018-10-03T15:43:55.448Z,90.41
2018-10-03T15:46:25.187Z,94.41
2018-10-03T15:48:54.577Z,96.88
2018-10-03T15:51:23.779Z,98.40
2018-10-03T15:53:52.850Z,100.00
2018-10-03T15:56:21.944Z,99.57
2018-10-03T15:58:51.974Z,100.00
2018-10-03T16:01:21.036Z,99.66
2018-10-03T16:03:50.136Z,99.27
2018-10-03T16:06:19.225Z,99.71
2018-10-03T16:08:48.272Z,94.07
2018-10-03T16:11:17.962Z,95.36
2018-10-03T16:13:47.008Z,98.98
2018-10-03T16:16:16.753Z,95.07
2018-10-03T16:18:47.018Z,98.86
2018-10-03T16:21:16.112Z,99.23
2018-10-03T16:23:46.405Z,99.93
2018-10-03T16:26:15.833Z,100.00
2018-10-03T16:28:44.956Z,100.00
2018-10-03T16:31:14.177Z,100.00
2018-10-03T16:33:43.298Z,100.00
2018-10-03T16:36:12.559Z,100.00
2018-10-03T16:38:42.828Z,100.00
2018-10-03T16:41:13.571Z,98.38
2018-10-03T16:43:43.852Z,99.40
2018-10-03T16:46:14.596Z,100.00
2018-10-03T16:48:43.831Z,100.00
2018-10-03T16:51:12.871Z,100.00
2018-10-03T16:53:41.982Z,100.00
2018-10-03T16:56:12.023Z,100.00
2018-10-03T16:58:41.094Z,100.00
2018-10-03T17:01:10.399Z,100.00
2018-10-03T17:03:39.616Z,97.51
2018-10-03T17:06:08.788Z,99.77
2018-10-03T17:08:37.857Z,100.00
2018-10-03T17:11:08.099Z,100.00
2018-10-03T17:13:46.652Z,100.00
2018-10-03T17:16:15.779Z,100.00
2018-10-03T17:18:44.842Z,100.00
2018-10-03T17:21:14.129Z,100.00
2018-10-03T17:23:43.262Z,100.00
2018-10-03T17:26:12.690Z,100.00
2018-10-03T17:28:42.077Z,100.00
2018-10-03T17:31:11.132Z,96.61
2018-10-03T17:33:40.531Z,99.18
2018-10-03T17:36:09.708Z,100.00
2018-10-03T17:38:38.815Z,88.98
2018-10-03T17:41:08.175Z,91.08
2018-10-03T17:43:37.256Z,92.14
2018-10-03T17:46:06.821Z,86.55
2018-10-03T17:48:38.189Z,79.78
2018-10-03T17:51:07.489Z,88.62
2018-10-03T17:53:36.595Z,90.38
2018-10-03T17:56:06.807Z,92.26
2018-10-03T17:58:36.024Z,88.46
2018-10-03T18:01:05.421Z,89.15
2018-10-03T18:03:34.525Z,90.56
2018-10-03T18:06:04.509Z,88.79
2018-10-03T18:08:37.644Z,89.46
2018-10-03T18:11:07.054Z,85.78
2018-10-03T18:13:36.329Z,77.89
2018-10-03T18:16:06.609Z,85.11
2018-10-03T18:18:36.937Z,86.63
2018-10-03T18:21:06.298Z,88.63
2018-10-03T18:23:35.561Z,88.14
2018-10-03T18:26:04.819Z,87.24
2018-10-03T18:28:34.367Z,88.08
2018-10-03T18:31:03.658Z,88.80
2018-10-03T18:33:35.237Z,90.07
2018-10-03T18:36:04.457Z,85.45
2018-10-03T18:38:34.193Z,86.94
2018-10-03T18:41:03.464Z,89.60
2018-10-03T18:43:32.767Z,86.77
2018-10-03T18:46:05.124Z,88.38
2018-10-03T18:48:34.661Z,88.91
2018-10-03T18:51:05.935Z,87.76
2018-10-03T18:53:35.947Z,90.66
2018-10-03T18:56:07.212Z,90.47
2018-10-03T18:58:38.238Z,92.76
2018-10-03T19:01:07.430Z,91.75
2018-10-03T19:03:36.596Z,92.37
2018-10-03T19:06:06.136Z,91.73
2018-10-03T19:08:35.800Z,92.59
2018-10-03T19:11:06.116Z,90.36
2018-10-03T19:13:36.304Z,91.79
2018-10-03T19:16:07.331Z,91.01
2018-10-03T19:18:38.726Z,90.40
2018-10-03T19:21:08.989Z,90.19
2018-10-03T19:23:38.263Z,90.86
2018-10-03T19:26:07.615Z,90.89
2018-10-03T19:28:37.001Z,92.45
2018-10-03T19:31:06.959Z,93.34
2018-10-03T19:33:36.387Z,93.65
2018-10-03T19:36:05.611Z,93.37
2018-10-03T19:38:36.155Z,93.65
2018-10-03T19:41:06.643Z,91.91
2018-10-03T19:43:36.036Z,91.85
2018-10-03T19:46:05.430Z,93.56
2018-10-03T19:48:34.847Z,93.12
2018-10-03T19:51:04.072Z,91.56
2018-10-03T19:53:34.772Z,93.29
2018-10-03T19:56:04.663Z,93.27
2018-10-03T19:58:33.821Z,92.80
2018-10-03T20:01:02.852Z,93.23
2018-10-03T20:03:32.041Z,95.48
2018-10-03T20:06:01.066Z,94.96
2018-10-03T20:08:30.232Z,95.57
2018-10-03T20:10:59.289Z,95.83
2018-10-03T20:13:28.351Z,95.74
2018-10-03T20:15:57.469Z,96.63
2018-10-03T20:18:26.515Z,95.25
2018-10-03T20:20:55.596Z,95.09
2018-10-03T20:23:24.807Z,94.69
2018-10-03T20:25:53.875Z,92.59
2018-10-03T20:28:22.895Z,90.49
2018-10-03T20:30:52.014Z,93.31
2018-10-03T20:33:21.156Z,94.38
2018-10-03T20:35:50.220Z,93.77
2018-10-03T20:38:19.324Z,95.24
2018-10-03T20:40:48.439Z,97.01
2018-10-03T20:43:17.680Z,97.95
2018-10-03T20:45:46.775Z,99.39
2018-10-03T20:48:15.996Z,97.30
2018-10-03T20:50:44.999Z,94.60
2018-10-03T20:53:14.046Z,94.74
2018-10-03T20:55:43.037Z,95.01
2018-10-03T20:58:12.175Z,96.66
2018-10-03T21:00:41.223Z,97.90
2018-10-03T21:03:10.365Z,99.04
2018-10-03T21:05:39.383Z,99.72
2018-10-03T21:08:08.482Z,100.00
2018-10-03T21:10:37.661Z,100.00
2018-10-03T21:13:06.798Z,100.00
2018-10-03T21:15:35.866Z,100.00
2018-10-03T21:18:04.985Z,100.00
2018-10-03T21:20:34.056Z,100.00
2018-10-03T21:23:03.196Z,100.00
2018-10-03T21:25:32.256Z,100.00
2018-10-03T21:28:01.274Z,100.00
2018-10-03T21:30:30.369Z,100.00
2018-10-03T21:32:59.397Z,100.00
2018-10-03T21:35:28.480Z,100.00
2018-10-03T21:37:57.637Z,100.00
2018-10-03T21:40:27.793Z,100.00
2018-10-03T21:42:57.852Z,100.00
2018-10-03T21:45:26.862Z,100.00
2018-10-03T21:47:55.945Z,100.00
2018-10-03T21:50:26.145Z,99.75
2018-10-03T21:52:56.139Z,98.69
2018-10-03T21:55:26.380Z,98.02
2018-10-03T21:57:55.481Z,98.34
2018-10-03T22:00:28.621Z,99.27
2018-10-03T22:02:57.798Z,98.00
2018-10-03T22:05:27.151Z,96.68
2018-10-03T22:07:56.246Z,97.88
2018-10-03T22:10:25.952Z,97.95
2018-10-03T22:12:54.963Z,98.33
2018-10-03T22:15:25.168Z,98.65
2018-10-03T22:17:54.412Z,98.24
2018-10-03T22:20:23.743Z,98.85
2018-10-03T22:22:53.015Z,99.99
2018-10-03T22:25:22.172Z,100.00
2018-10-03T22:27:51.320Z,100.00
2018-10-03T22:30:20.456Z,100.00
2018-10-03T22:32:49.628Z,100.00
2018-10-03T22:35:19.698Z,100.00
2018-10-03T22:37:48.948Z,100.00
2018-10-03T22:40:19.142Z,100.00
2018-10-03T22:42:48.276Z,100.00
2018-10-03T22:45:17.340Z,100.00
2018-10-03T22:47:46.457Z,100.00
2018-10-03T22:50:15.546Z,100.00
2018-10-03T22:52:45.400Z,100.00
2018-10-03T22:55:14.408Z,100.00
2018-10-03T22:57:43.443Z,100.00
2018-10-03T23:00:12.537Z,100.00
2018-10-03T23:02:41.594Z,100.00
2018-10-03T23:05:11.359Z,99.77
2018-10-03T23:07:40.438Z,100.00
2018-10-03T23:10:09.840Z,100.00
2018-10-03T23:12:38.976Z,100.00
2018-10-03T23:15:08.040Z,100.00
2018-10-03T23:17:37.233Z,100.00
2018-10-03T23:20:06.388Z,100.00
2018-10-03T23:22:35.435Z,100.00
2018-10-03T23:25:04.630Z,100.00
2018-10-03T23:27:33.654Z,100.00
2018-10-03T23:30:02.823Z,100.00
2018-10-03T23:32:31.822Z,100.00
2018-10-03T23:35:00.968Z,100.00
2018-10-03T23:37:29.986Z,100.00
2018-10-03T23:39:59.199Z,100.00
2018-10-03T23:42:28.394Z,100.00
2018-10-03T23:44:57.396Z,100.00
2018-10-03T23:47:26.472Z,100.00
2018-10-03T23:49:55.591Z,100.00
2018-10-03T23:52:24.642Z,100.00
2018-10-03T23:54:53.689Z,100.00
2018-10-03T23:57:22.824Z,100.00
2018-10-03T23:59:52.017Z,100.00
